sensor_id;sensor_type;location;lat;lon;timestamp;P1;durP1;ratioP1;P2;durP2;ratioP2
27357;SDS011;14831;50.474;7.616;2023-07-31T00:00:57;7.4;;;2.9;;
27357;SDS011;14831;50.474;7.616;2023-07-31T00:05:57;7.4;;;2.9;;
27357;SDS011;14831;50.474;7.616;2023-07-31T00:10:57;7.4;;;2.9;;
27357;SDS011;14831;50.474;7.616;2023-07-31T00:15:57;7.5;;;2.6;;
27357;SDS011;14831;50.474;7.616;2023-07-31T00:20:57;7.5;;;2.6;;
27357;SDS011;14831;50.474;7.616;2023-07-31T00:25:57;7.5;;;2.6;;
27357;SDS011;14831;50.474;7.616;2023-07-31T00:30:57;7.5;;;2.6;;
27357;SDS011;14831;50.474;7.616;2023-07-31T00:35:57;7.5;;;2.6;;
27357;SDS011;14831;50.474;7.616;2023-07-31T00:40:57;7.5;;;2.6;;
27357;SDS011;14831;50.474;7.616;2023-07-31T00:45:57;4.9;;;2.8;;
27357;SDS011;14831;50.474;7.616;2023-07-31T00:50:57;4.9;;;2.8;;
27357;SDS011;14831;50.474;7.616;2023-07-31T00:55:58;4.9;;;2.8;;
27357;SDS011;14831;50.474;7.616;2023-07-31T01:00:57;4.9;;;2.8;;
27357;SDS011;14831;50.474;7.616;2023-07-31T01:06:14;4.9;;;2.8;;
27357;SDS011;14831;50.474;7.616;2023-07-31T01:11:02;4.9;;;2.8;;
27357;SDS011;14831;50.474;7.616;2023-07-31T01:15:57;5.3;;;2.8;;
27357;SDS011;14831;50.474;7.616;2023-07-31T01:21:06;5.3;;;2.8;;
27357;SDS011;14831;50.474;7.616;2023-07-31T01:26:03;5.3;;;2.8;;
27357;SDS011;14831;50.474;7.616;2023-07-31T01:30:58;5.3;;;2.8;;
27357;SDS011;14831;50.474;7.616;2023-07-31T01:35:57;5.3;;;2.8;;
27357;SDS011;14831;50.474;7.616;2023-07-31T01:40:57;5.3;;;2.8;;
27357;SDS011;14831;50.474;7.616;2023-07-31T01:45:57;3.7;;;2.6;;
27357;SDS011;14831;50.474;7.616;2023-07-31T01:51:00;3.7;;;2.6;;
27357;SDS011;14831;50.474;7.616;2023-07-31T01:55:57;3.7;;;2.6;;
27357;SDS011;14831;50.474;7.616;2023-07-31T02:00:57;3.7;;;2.6;;
27357;SDS011;14831;50.474;7.616;2023-07-31T02:05:57;3.7;;;2.6;;
27357;SDS011;14831;50.474;7.616;2023-07-31T02:10:57;3.7;;;2.6;;
27357;SDS011;14831;50.474;7.616;2023-07-31T02:15:57;5.7;;;2.8;;
27357;SDS011;14831;50.474;7.616;2023-07-31T02:20:57;5.7;;;2.8;;
27357;SDS011;14831;50.474;7.616;2023-07-31T02:25:57;5.7;;;2.8;;
27357;SDS011;14831;50.474;7.616;2023-07-31T02:30:57;5.7;;;2.8;;
27357;SDS011;14831;50.474;7.616;2023-07-31T02:35:57;5.7;;;2.8;;
27357;SDS011;14831;50.474;7.616;2023-07-31T02:40:57;5.7;;;2.8;;
27357;SDS011;14831;50.474;7.616;2023-07-31T02:45:57;5.2;;;3.1;;
27357;SDS011;14831;50.474;7.616;2023-07-31T02:50:57;5.2;;;3.1;;
27357;SDS011;14831;50.474;7.616;2023-07-31T02:55:57;5.2;;;3.1;;
27357;SDS011;14831;50.474;7.616;2023-07-31T03:00:58;5.2;;;3.1;;
27357;SDS011;14831;50.474;7.616;2023-07-31T03:05:57;5.2;;;3.1;;
27357;SDS011;14831;50.474;7.616;2023-07-31T03:10:57;5.2;;;3.1;;
27357;SDS011;14831;50.474;7.616;2023-07-31T03:15:57;3.8;;;2.7;;
27357;SDS011;14831;50.474;7.616;2023-07-31T03:20:57;3.8;;;2.7;;
27357;SDS011;14831;50.474;7.616;2023-07-31T03:25:58;3.8;;;2.7;;
27357;SDS011;14831;50.474;7.616;2023-07-31T03:30:57;3.8;;;2.7;;
27357;SDS011;14831;50.474;7.616;2023-07-31T03:35:57;3.8;;;2.7;;
27357;SDS011;14831;50.474;7.616;2023-07-31T03:40:57;3.8;;;2.7;;
27357;SDS011;14831;50.474;7.616;2023-07-31T03:45:57;4.0;;;2.7;;
27357;SDS011;14831;50.474;7.616;2023-07-31T03:50:57;4.0;;;2.7;;
27357;SDS011;14831;50.474;7.616;2023-07-31T03:55:57;4.0;;;2.7;;
27357;SDS011;14831;50.474;7.616;2023-07-31T04:00:57;4.0;;;2.7;;
27357;SDS011;14831;50.474;7.616;2023-07-31T04:05:57;4.0;;;2.7;;
27357;SDS011;14831;50.474;7.616;2023-07-31T04:10:57;4.0;;;2.7;;
27357;SDS011;14831;50.474;7.616;2023-07-31T04:15:57;4.9;;;2.7;;
27357;SDS011;14831;50.474;7.616;2023-07-31T04:20:58;4.9;;;2.7;;
27357;SDS011;14831;50.474;7.616;2023-07-31T04:25:57;4.9;;;2.7;;
27357;SDS011;14831;50.474;7.616;2023-07-31T04:30:57;4.9;;;2.7;;
27357;SDS011;14831;50.474;7.616;2023-07-31T04:35:57;4.9;;;2.7;;
27357;SDS011;14831;50.474;7.616;2023-07-31T04:40:57;4.9;;;2.7;;
27357;SDS011;14831;50.474;7.616;2023-07-31T04:45:57;8.0;;;2.7;;
27357;SDS011;14831;50.474;7.616;2023-07-31T04:50:57;8.0;;;2.7;;
27357;SDS011;14831;50.474;7.616;2023-07-31T04:55:57;8.0;;;2.7;;
27357;SDS011;14831;50.474;7.616;2023-07-31T05:00:57;8.0;;;2.7;;
27357;SDS011;14831;50.474;7.616;2023-07-31T05:05:57;8.0;;;2.7;;
27357;SDS011;14831;50.474;7.616;2023-07-31T05:10:57;8.0;;;2.7;;
27357;SDS011;14831;50.474;7.616;2023-07-31T05:15:57;5.7;;;2.7;;
27357;SDS011;14831;50.474;7.616;2023-07-31T05:20:57;5.7;;;2.7;;
27357;SDS011;14831;50.474;7.616;2023-07-31T05:26:02;5.7;;;2.7;;
27357;SDS011;14831;50.474;7.616;2023-07-31T05:30:59;5.7;;;2.7;;
27357;SDS011;14831;50.474;7.616;2023-07-31T05:35:57;5.7;;;2.7;;
27357;SDS011;14831;50.474;7.616;2023-07-31T05:40:57;5.7;;;2.7;;
27357;SDS011;14831;50.474;7.616;2023-07-31T05:45:57;5.4;;;2.9;;
27357;SDS011;14831;50.474;7.616;2023-07-31T05:50:57;5.4;;;2.9;;
27357;SDS011;14831;50.474;7.616;2023-07-31T05:55:57;5.4;;;2.9;;
27357;SDS011;14831;50.474;7.616;2023-07-31T06:00:57;5.4;;;2.9;;
27357;SDS011;14831;50.474;7.616;2023-07-31T06:05:57;5.4;;;2.9;;
27357;SDS011;14831;50.474;7.616;2023-07-31T06:10:57;5.4;;;2.9;;
27357;SDS011;14831;50.474;7.616;2023-07-31T06:15:57;5.9;;;2.9;;
27357;SDS011;14831;50.474;7.616;2023-07-31T06:20:57;5.9;;;2.9;;
27357;SDS011;14831;50.474;7.616;2023-07-31T06:25:57;5.9;;;2.9;;
27357;SDS011;14831;50.474;7.616;2023-07-31T06:30:57;5.9;;;2.9;;
27357;SDS011;14831;50.474;7.616;2023-07-31T06:35:57;5.9;;;2.9;;
27357;SDS011;14831;50.474;7.616;2023-07-31T06:40:57;5.9;;;2.9;;
27357;SDS011;14831;50.474;7.616;2023-07-31T06:45:57;5.6;;;3.2;;
27357;SDS011;14831;50.474;7.616;2023-07-31T06:50:57;5.6;;;3.2;;
27357;SDS011;14831;50.474;7.616;2023-07-31T06:55:57;5.6;;;3.2;;
27357;SDS011;14831;50.474;7.616;2023-07-31T07:00:57;5.6;;;3.2;;
27357;SDS011;14831;50.474;7.616;2023-07-31T07:05:57;5.6;;;3.2;;
27357;SDS011;14831;50.474;7.616;2023-07-31T07:10:57;5.6;;;3.2;;
27357;SDS011;14831;50.474;7.616;2023-07-31T07:15:57;8.3;;;3.2;;
27357;SDS011;14831;50.474;7.616;2023-07-31T07:20:57;8.3;;;3.2;;
27357;SDS011;14831;50.474;7.616;2023-07-31T07:25:57;8.3;;;3.2;;
27357;SDS011;14831;50.474;7.616;2023-07-31T07:30:57;8.3;;;3.2;;
27357;SDS011;14831;50.474;7.616;2023-07-31T07:36:00;8.3;;;3.2;;
27357;SDS011;14831;50.474;7.616;2023-07-31T07:40:57;8.3;;;3.2;;
27357;SDS011;14831;50.474;7.616;2023-07-31T07:45:57;7.6;;;3.7;;
27357;SDS011;14831;50.474;7.616;2023-07-31T07:50:57;7.6;;;3.7;;
27357;SDS011;14831;50.474;7.616;2023-07-31T07:55:57;7.6;;;3.7;;
27357;SDS011;14831;50.474;7.616;2023-07-31T08:00:57;7.6;;;3.7;;
27357;SDS011;14831;50.474;7.616;2023-07-31T08:05:58;7.6;;;3.7;;
27357;SDS011;14831;50.474;7.616;2023-07-31T08:10:57;7.6;;;3.7;;
27357;SDS011;14831;50.474;7.616;2023-07-31T08:15:57;6.5;;;3.5;;
27357;SDS011;14831;50.474;7.616;2023-07-31T08:20:57;6.5;;;3.5;;
27357;SDS011;14831;50.474;7.616;2023-07-31T08:25:57;6.5;;;3.5;;
27357;SDS011;14831;50.474;7.616;2023-07-31T08:30:57;6.5;;;3.5;;
27357;SDS011;14831;50.474;7.616;2023-07-31T08:35:57;6.5;;;3.5;;
27357;SDS011;14831;50.474;7.616;2023-07-31T08:40:58;6.5;;;3.5;;
27357;SDS011;14831;50.474;7.616;2023-07-31T08:45:57;7.9;;;3.8;;
27357;SDS011;14831;50.474;7.616;2023-07-31T08:50:57;7.9;;;3.8;;
27357;SDS011;14831;50.474;7.616;2023-07-31T08:55:58;7.9;;;3.8;;
27357;SDS011;14831;50.474;7.616;2023-07-31T09:00:58;7.9;;;3.8;;
27357;SDS011;14831;50.474;7.616;2023-07-31T09:05:57;7.9;;;3.8;;
27357;SDS011;14831;50.474;7.616;2023-07-31T09:10:59;7.9;;;3.8;;
27357;SDS011;14831;50.474;7.616;2023-07-31T09:15:57;6.7;;;3.5;;
27357;SDS011;14831;50.474;7.616;2023-07-31T09:21:01;6.7;;;3.5;;
27357;SDS011;14831;50.474;7.616;2023-07-31T09:25:57;6.7;;;3.5;;
27357;SDS011;14831;50.474;7.616;2023-07-31T09:30:57;6.7;;;3.5;;
27357;SDS011;14831;50.474;7.616;2023-07-31T09:35:58;6.7;;;3.5;;
27357;SDS011;14831;50.474;7.616;2023-07-31T09:40:58;6.7;;;3.5;;
27357;SDS011;14831;50.474;7.616;2023-07-31T09:45:57;5.8;;;3.7;;
27357;SDS011;14831;50.474;7.616;2023-07-31T09:51:04;5.8;;;3.7;;
27357;SDS011;14831;50.474;7.616;2023-07-31T09:55:58;5.8;;;3.7;;
27357;SDS011;14831;50.474;7.616;2023-07-31T10:00:58;5.8;;;3.7;;
27357;SDS011;14831;50.474;7.616;2023-07-31T10:05:58;5.8;;;3.7;;
27357;SDS011;14831;50.474;7.616;2023-07-31T10:10:59;5.8;;;3.7;;
27357;SDS011;14831;50.474;7.616;2023-07-31T10:15:59;7.4;;;3.7;;
27357;SDS011;14831;50.474;7.616;2023-07-31T10:20:57;7.4;;;3.7;;
27357;SDS011;14831;50.474;7.616;2023-07-31T10:25:58;7.4;;;3.7;;
27357;SDS011;14831;50.474;7.616;2023-07-31T10:30:57;7.4;;;3.7;;
27357;SDS011;14831;50.474;7.616;2023-07-31T10:36:12;7.4;;;3.7;;
27357;SDS011;14831;50.474;7.616;2023-07-31T10:41:07;7.4;;;3.7;;
27357;SDS011;14831;50.474;7.616;2023-07-31T10:45:57;7.3;;;3.8;;
27357;SDS011;14831;50.474;7.616;2023-07-31T10:50:57;7.3;;;3.8;;
27357;SDS011;14831;50.474;7.616;2023-07-31T10:55:58;7.3;;;3.8;;
27357;SDS011;14831;50.474;7.616;2023-07-31T11:00:58;7.3;;;3.8;;
27357;SDS011;14831;50.474;7.616;2023-07-31T11:06:01;7.3;;;3.8;;
27357;SDS011;14831;50.474;7.616;2023-07-31T11:11:07;7.3;;;3.8;;
27357;SDS011;14831;50.474;7.616;2023-07-31T11:15:58;5.0;;;3.4;;
27357;SDS011;14831;50.474;7.616;2023-07-31T11:20:57;5.0;;;3.4;;
27357;SDS011;14831;50.474;7.616;2023-07-31T11:25:59;5.0;;;3.4;;
27357;SDS011;14831;50.474;7.616;2023-07-31T11:30:57;5.0;;;3.4;;
27357;SDS011;14831;50.474;7.616;2023-07-31T11:35:57;5.0;;;3.4;;
27357;SDS011;14831;50.474;7.616;2023-07-31T11:40:58;5.0;;;3.4;;
27357;SDS011;14831;50.474;7.616;2023-07-31T11:45:59;3.9;;;2.8;;
27357;SDS011;14831;50.474;7.616;2023-07-31T11:50:58;3.9;;;2.8;;
27357;SDS011;14831;50.474;7.616;2023-07-31T11:55:58;3.9;;;2.8;;
27357;SDS011;14831;50.474;7.616;2023-07-31T12:00:58;3.9;;;2.8;;
27357;SDS011;14831;50.474;7.616;2023-07-31T12:05:58;3.9;;;2.8;;
27357;SDS011;14831;50.474;7.616;2023-07-31T12:11:03;3.9;;;2.8;;
27357;SDS011;14831;50.474;7.616;2023-07-31T12:15:58;9.3;;;2.8;;
27357;SDS011;14831;50.474;7.616;2023-07-31T12:20:59;9.3;;;2.8;;
27357;SDS011;14831;50.474;7.616;2023-07-31T12:26:01;9.3;;;2.8;;
27357;SDS011;14831;50.474;7.616;2023-07-31T12:30:58;9.3;;;2.8;;
27357;SDS011;14831;50.474;7.616;2023-07-31T12:35:57;9.3;;;2.8;;
27357;SDS011;14831;50.474;7.616;2023-07-31T12:40:57;9.3;;;2.8;;
27357;SDS011;14831;50.474;7.616;2023-07-31T12:45:57;9.4;;;3.0;;
27357;SDS011;14831;50.474;7.616;2023-07-31T12:50:57;9.4;;;3.0;;
27357;SDS011;14831;50.474;7.616;2023-07-31T12:55:57;9.4;;;3.0;;
27357;SDS011;14831;50.474;7.616;2023-07-31T13:00:57;9.4;;;3.0;;
27357;SDS011;14831;50.474;7.616;2023-07-31T13:05:57;9.4;;;3.0;;
27357;SDS011;14831;50.474;7.616;2023-07-31T13:10:57;9.4;;;3.0;;
27357;SDS011;14831;50.474;7.616;2023-07-31T13:15:57;5.6;;;2.4;;
27357;SDS011;14831;50.474;7.616;2023-07-31T13:20:57;5.6;;;2.4;;
27357;SDS011;14831;50.474;7.616;2023-07-31T13:25:57;5.6;;;2.4;;
27357;SDS011;14831;50.474;7.616;2023-07-31T13:30:57;5.6;;;2.4;;
27357;SDS011;14831;50.474;7.616;2023-07-31T13:35:57;5.6;;;2.4;;
27357;SDS011;14831;50.474;7.616;2023-07-31T13:40:57;5.6;;;2.4;;
27357;SDS011;14831;50.474;7.616;2023-07-31T13:45:57;4.6;;;2.7;;
27357;SDS011;14831;50.474;7.616;2023-07-31T13:50:57;4.6;;;2.7;;
27357;SDS011;14831;50.474;7.616;2023-07-31T13:55:57;4.6;;;2.7;;
27357;SDS011;14831;50.474;7.616;2023-07-31T14:00:57;4.6;;;2.7;;
27357;SDS011;14831;50.474;7.616;2023-07-31T14:05:57;4.6;;;2.7;;
27357;SDS011;14831;50.474;7.616;2023-07-31T14:10:57;4.6;;;2.7;;
27357;SDS011;14831;50.474;7.616;2023-07-31T14:15:57;3.8;;;2.2;;
27357;SDS011;14831;50.474;7.616;2023-07-31T14:20:57;3.8;;;2.2;;
27357;SDS011;14831;50.474;7.616;2023-07-31T14:25:57;3.8;;;2.2;;
27357;SDS011;14831;50.474;7.616;2023-07-31T14:30:57;3.8;;;2.2;;
27357;SDS011;14831;50.474;7.616;2023-07-31T14:35:59;3.8;;;2.2;;
27357;SDS011;14831;50.474;7.616;2023-07-31T14:40:57;3.8;;;2.2;;
27357;SDS011;14831;50.474;7.616;2023-07-31T14:45:57;3.4;;;2.0;;
27357;SDS011;14831;50.474;7.616;2023-07-31T14:50:57;3.4;;;2.0;;
27357;SDS011;14831;50.474;7.616;2023-07-31T14:55:57;3.4;;;2.0;;
27357;SDS011;14831;50.474;7.616;2023-07-31T15:00:57;3.4;;;2.0;;
27357;SDS011;14831;50.474;7.616;2023-07-31T15:05:57;3.4;;;2.0;;
27357;SDS011;14831;50.474;7.616;2023-07-31T15:10:57;3.4;;;2.0;;
27357;SDS011;14831;50.474;7.616;2023-07-31T15:15:57;1.9;;;1.7;;
27357;SDS011;14831;50.474;7.616;2023-07-31T15:20:57;1.9;;;1.7;;
27357;SDS011;14831;50.474;7.616;2023-07-31T15:25:57;1.9;;;1.7;;
27357;SDS011;14831;50.474;7.616;2023-07-31T15:30:57;1.9;;;1.7;;
27357;SDS011;14831;50.474;7.616;2023-07-31T15:35:57;1.9;;;1.7;;
27357;SDS011;14831;50.474;7.616;2023-07-31T15:40:57;1.9;;;1.7;;
27357;SDS011;14831;50.474;7.616;2023-07-31T15:45:57;2.9;;;1.9;;
27357;SDS011;14831;50.474;7.616;2023-07-31T15:50:57;2.9;;;1.9;;
27357;SDS011;14831;50.474;7.616;2023-07-31T15:55:58;2.9;;;1.9;;
27357;SDS011;14831;50.474;7.616;2023-07-31T16:00:57;2.9;;;1.9;;
27357;SDS011;14831;50.474;7.616;2023-07-31T16:05:57;2.9;;;1.9;;
27357;SDS011;14831;50.474;7.616;2023-07-31T16:10:57;2.9;;;1.9;;
27357;SDS011;14831;50.474;7.616;2023-07-31T16:15:57;1.8;;;1.6;;
27357;SDS011;14831;50.474;7.616;2023-07-31T16:20:57;1.8;;;1.6;;
27357;SDS011;14831;50.474;7.616;2023-07-31T16:25:57;1.8;;;1.6;;
27357;SDS011;14831;50.474;7.616;2023-07-31T16:30:57;1.8;;;1.6;;
27357;SDS011;14831;50.474;7.616;2023-07-31T16:35:57;1.8;;;1.6;;
27357;SDS011;14831;50.474;7.616;2023-07-31T16:40:57;1.8;;;1.6;;
27357;SDS011;14831;50.474;7.616;2023-07-31T16:45:57;3.4;;;2.0;;
27357;SDS011;14831;50.474;7.616;2023-07-31T16:50:57;3.4;;;2.0;;
27357;SDS011;14831;50.474;7.616;2023-07-31T16:55:57;3.4;;;2.0;;
27357;SDS011;14831;50.474;7.616;2023-07-31T17:00:57;3.4;;;2.0;;
27357;SDS011;14831;50.474;7.616;2023-07-31T17:05:57;3.4;;;2.0;;
27357;SDS011;14831;50.474;7.616;2023-07-31T17:10:57;3.4;;;2.0;;
27357;SDS011;14831;50.474;7.616;2023-07-31T17:15:57;6.6;;;3.0;;
27357;SDS011;14831;50.474;7.616;2023-07-31T17:20:57;6.6;;;3.0;;
27357;SDS011;14831;50.474;7.616;2023-07-31T17:25:57;6.6;;;3.0;;
27357;SDS011;14831;50.474;7.616;2023-07-31T17:30:58;6.6;;;3.0;;
27357;SDS011;14831;50.474;7.616;2023-07-31T17:35:57;6.6;;;3.0;;
27357;SDS011;14831;50.474;7.616;2023-07-31T17:40:57;6.6;;;3.0;;
27357;SDS011;14831;50.474;7.616;2023-07-31T17:45:57;4.9;;;2.5;;
27357;SDS011;14831;50.474;7.616;2023-07-31T17:50:57;4.9;;;2.5;;
27357;SDS011;14831;50.474;7.616;2023-07-31T17:55:57;4.9;;;2.5;;
27357;SDS011;14831;50.474;7.616;2023-07-31T18:00:57;4.9;;;2.5;;
27357;SDS011;14831;50.474;7.616;2023-07-31T18:05:57;4.9;;;2.5;;
27357;SDS011;14831;50.474;7.616;2023-07-31T18:10:57;4.9;;;2.5;;
27357;SDS011;14831;50.474;7.616;2023-07-31T18:15:57;5.0;;;2.9;;
27357;SDS011;14831;50.474;7.616;2023-07-31T18:20:57;5.0;;;2.9;;
27357;SDS011;14831;50.474;7.616;2023-07-31T18:25:57;5.0;;;2.9;;
27357;SDS011;14831;50.474;7.616;2023-07-31T18:30:57;5.0;;;2.9;;
27357;SDS011;14831;50.474;7.616;2023-07-31T18:35:57;5.0;;;2.9;;
27357;SDS011;14831;50.474;7.616;2023-07-31T18:40:57;5.0;;;2.9;;
27357;SDS011;14831;50.474;7.616;2023-07-31T18:45:57;5.7;;;2.9;;
27357;SDS011;14831;50.474;7.616;2023-07-31T18:50:57;5.7;;;2.9;;
27357;SDS011;14831;50.474;7.616;2023-07-31T18:55:57;5.7;;;2.9;;
27357;SDS011;14831;50.474;7.616;2023-07-31T19:00:57;5.7;;;2.9;;
27357;SDS011;14831;50.474;7.616;2023-07-31T19:06:01;5.7;;;2.9;;
27357;SDS011;14831;50.474;7.616;2023-07-31T19:10:57;5.7;;;2.9;;
27357;SDS011;14831;50.474;7.616;2023-07-31T19:15:57;6.9;;;2.5;;
27357;SDS011;14831;50.474;7.616;2023-07-31T19:20:57;6.9;;;2.5;;
27357;SDS011;14831;50.474;7.616;2023-07-31T19:25:57;6.9;;;2.5;;
27357;SDS011;14831;50.474;7.616;2023-07-31T19:30:57;6.9;;;2.5;;
27357;SDS011;14831;50.474;7.616;2023-07-31T19:35:58;6.9;;;2.5;;
27357;SDS011;14831;50.474;7.616;2023-07-31T19:40:58;6.9;;;2.5;;
27357;SDS011;14831;50.474;7.616;2023-07-31T19:45:57;3.6;;;2.7;;
27357;SDS011;14831;50.474;7.616;2023-07-31T19:50:57;3.6;;;2.7;;
27357;SDS011;14831;50.474;7.616;2023-07-31T19:55:57;3.6;;;2.7;;
27357;SDS011;14831;50.474;7.616;2023-07-31T20:00:57;3.6;;;2.7;;
27357;SDS011;14831;50.474;7.616;2023-07-31T20:05:57;3.6;;;2.7;;
27357;SDS011;14831;50.474;7.616;2023-07-31T20:10:57;3.6;;;2.7;;
27357;SDS011;14831;50.474;7.616;2023-07-31T20:15:57;7.8;;;4.4;;
27357;SDS011;14831;50.474;7.616;2023-07-31T20:20:57;7.8;;;4.4;;
27357;SDS011;14831;50.474;7.616;2023-07-31T20:25:57;7.8;;;4.4;;
27357;SDS011;14831;50.474;7.616;2023-07-31T20:30:57;7.8;;;4.4;;
27357;SDS011;14831;50.474;7.616;2023-07-31T20:35:57;7.8;;;4.4;;
27357;SDS011;14831;50.474;7.616;2023-07-31T20:40:57;7.8;;;4.4;;
27357;SDS011;14831;50.474;7.616;2023-07-31T20:45:57;8.8;;;4.9;;
27357;SDS011;14831;50.474;7.616;2023-07-31T20:50:59;8.8;;;4.9;;
27357;SDS011;14831;50.474;7.616;2023-07-31T20:55:57;8.8;;;4.9;;
27357;SDS011;14831;50.474;7.616;2023-07-31T21:00:57;8.8;;;4.9;;
27357;SDS011;14831;50.474;7.616;2023-07-31T21:05:57;8.8;;;4.9;;
27357;SDS011;14831;50.474;7.616;2023-07-31T21:10:57;8.8;;;4.9;;
27357;SDS011;14831;50.474;7.616;2023-07-31T21:15:58;5.8;;;4.2;;
27357;SDS011;14831;50.474;7.616;2023-07-31T21:20:57;5.8;;;4.2;;
27357;SDS011;14831;50.474;7.616;2023-07-31T21:25:57;5.8;;;4.2;;
27357;SDS011;14831;50.474;7.616;2023-07-31T21:30:57;5.8;;;4.2;;
27357;SDS011;14831;50.474;7.616;2023-07-31T21:35:57;5.8;;;4.2;;
27357;SDS011;14831;50.474;7.616;2023-07-31T21:40:58;5.8;;;4.2;;
27357;SDS011;14831;50.474;7.616;2023-07-31T21:45:57;7.3;;;3.8;;
27357;SDS011;14831;50.474;7.616;2023-07-31T21:50:58;7.3;;;3.8;;
27357;SDS011;14831;50.474;7.616;2023-07-31T21:55:57;7.3;;;3.8;;
27357;SDS011;14831;50.474;7.616;2023-07-31T22:00:57;7.3;;;3.8;;
27357;SDS011;14831;50.474;7.616;2023-07-31T22:05:57;7.3;;;3.8;;
27357;SDS011;14831;50.474;7.616;2023-07-31T22:10:57;7.3;;;3.8;;
27357;SDS011;14831;50.474;7.616;2023-07-31T22:15:57;4.4;;;3.5;;
27357;SDS011;14831;50.474;7.616;2023-07-31T22:20:57;4.4;;;3.5;;
27357;SDS011;14831;50.474;7.616;2023-07-31T22:25:57;4.4;;;3.5;;
27357;SDS011;14831;50.474;7.616;2023-07-31T22:30:57;4.4;;;3.5;;
27357;SDS011;14831;50.474;7.616;2023-07-31T22:35:57;4.4;;;3.5;;
27357;SDS011;14831;50.474;7.616;2023-07-31T22:40:57;4.4;;;3.5;;
27357;SDS011;14831;50.474;7.616;2023-07-31T22:45:57;4.7;;;3.5;;
27357;SDS011;14831;50.474;7.616;2023-07-31T22:50:57;4.7;;;3.5;;
27357;SDS011;14831;50.474;7.616;2023-07-31T22:56:02;4.7;;;3.5;;
27357;SDS011;14831;50.474;7.616;2023-07-31T23:01:01;4.7;;;3.5;;
27357;SDS011;14831;50.474;7.616;2023-07-31T23:05:57;4.7;;;3.5;;
27357;SDS011;14831;50.474;7.616;2023-07-31T23:10:57;4.7;;;3.5;;
27357;SDS011;14831;50.474;7.616;2023-07-31T23:15:57;5.5;;;2.9;;
27357;SDS011;14831;50.474;7.616;2023-07-31T23:20:57;5.5;;;2.9;;
27357;SDS011;14831;50.474;7.616;2023-07-31T23:25:57;5.5;;;2.9;;
27357;SDS011;14831;50.474;7.616;2023-07-31T23:31:01;5.5;;;2.9;;
27357;SDS011;14831;50.474;7.616;2023-07-31T23:35:57;5.5;;;2.9;;
27357;SDS011;14831;50.474;7.616;2023-07-31T23:40:57;5.5;;;2.9;;
27357;SDS011;14831;50.474;7.616;2023-07-31T23:45:57;3.7;;;2.6;;
27357;SDS011;14831;50.474;7.616;2023-07-31T23:50:57;3.7;;;2.6;;
27357;SDS011;14831;50.474;7.616;2023-07-31T23:55:58;3.7;;;2.6;;
